Ringaskiddy, Ireland
Current Conditions -  °F | °C
As of 2:30 AM on Thursday 23 Oct 2014 (Local Time) from EICK Reporting Station
Broken Clouds Broken Clouds  
Wind Chill: 55°   Ceiling: 400
Heat Index: 55°   Visibility: 6mi
Dew Point: 54°   Wind: 18mph
Humidity: 94%   Direction: 220°SW
Pressure: 30.03"   Gusts: NA
Location:  51.83°N, 8.32°W
Report Text: EICK 230130Z 22016KT 9999 FEW002 BKN004 BKN008 13/12 Q1017 TEMPO 3000 BKN003
Loading
Personal Weather Stations






























Interactive Weather Map
Tropical Storm Tracking
New forecast layout! Learn more

10-Day Weather Forecast

Advertisements
Track Severe Weather on mobile